createdAt,value
2022-10-26T00:01:08.156Z,1385.72
2022-10-26T00:03:37.865Z,1378.50
2022-10-26T00:06:07.924Z,1374.53
2022-10-26T00:08:36.282Z,1379.10
2022-10-26T00:11:05.029Z,1376.22
2022-10-26T00:13:33.198Z,1379.85
2022-10-26T00:16:01.843Z,1382.75
2022-10-26T00:18:31.336Z,1366.13
2022-10-26T00:21:04.445Z,1374.88
2022-10-26T00:23:32.535Z,1365.23
2022-10-26T00:26:00.801Z,1376.18
2022-10-26T00:28:29.486Z,1374.22
2022-10-26T00:31:03.618Z,1367.55
2022-10-26T00:33:33.473Z,1370.03
2022-10-26T00:36:01.739Z,1367.13
2022-10-26T00:38:29.798Z,1358.35
2022-10-26T00:43:39.237Z,1366.78
2022-10-26T00:46:12.715Z,1360.25
2022-10-26T00:48:45.534Z,1349.47
2022-10-26T00:51:19.998Z,1358.50
2022-10-26T00:53:48.768Z,1355.97
2022-10-26T00:56:17.361Z,1362.22
2022-10-26T00:58:46.146Z,1370.45
2022-10-26T01:01:14.468Z,1369.93
2022-10-26T01:03:44.743Z,1378.05
2022-10-26T01:06:14.613Z,1373.68
2022-10-26T01:08:44.327Z,1373.13
2022-10-26T01:11:13.379Z,1359.85
2022-10-26T01:13:45.190Z,1368.15
2022-10-26T01:16:39.476Z,1366.53
2022-10-26T01:19:38.870Z,1364.30
2022-10-26T01:22:09.425Z,1369.60
2022-10-26T01:24:51.879Z,1370.25
2022-10-26T01:27:30.457Z,1360.53
2022-10-26T01:30:21.235Z,1367.10
2022-10-26T01:32:58.635Z,1356.20
2022-10-26T01:35:31.509Z,1365.63
2022-10-26T01:38:05.948Z,1364.50
2022-10-26T01:40:39.718Z,1351.45
2022-10-26T01:43:12.280Z,1307.97
2022-10-26T01:45:45.698Z,1289.03
2022-10-26T01:48:17.617Z,1285.40
2022-10-26T01:50:48.487Z,1273.88
2022-10-26T01:53:17.197Z,1273.00
2022-10-26T01:55:48.947Z,1282.55
2022-10-26T01:58:52.903Z,1280.45
2022-10-26T02:01:38.536Z,1271.70
2022-10-26T02:04:16.206Z,1270.75
2022-10-26T02:06:52.977Z,1265.32
2022-10-26T02:09:28.914Z,1263.82
2022-10-26T02:11:57.774Z,1273.13
2022-10-26T02:14:35.185Z,1276.53
2022-10-26T02:17:09.200Z,1280.68
2022-10-26T02:19:44.376Z,1280.10
2022-10-26T02:22:19.382Z,1265.82
2022-10-26T02:24:50.446Z,1262.05
2022-10-26T02:27:22.711Z,1262.47
2022-10-26T02:29:52.907Z,1254.65
2022-10-26T02:32:25.978Z,1238.07
2022-10-26T02:34:57.755Z,1237.97
2022-10-26T02:37:28.037Z,1232.43
2022-10-26T02:39:58.969Z,1240.47
2022-10-26T02:42:28.906Z,1240.60
2022-10-26T02:45:02.207Z,1238.25
2022-10-26T02:47:31.771Z,1238.17
2022-10-26T02:50:00.205Z,1245.05
2022-10-26T02:52:37.062Z,1245.53
2022-10-26T02:55:11.961Z,1245.45
2022-10-26T02:57:42.978Z,1234.60
2022-10-26T03:00:13.326Z,1234.07
2022-10-26T03:02:47.576Z,1243.95
2022-10-26T03:05:21.829Z,1241.80
2022-10-26T03:07:49.940Z,1237.10
2022-10-26T03:10:18.191Z,1229.50
2022-10-26T03:12:46.508Z,1241.13
2022-10-26T03:15:15.423Z,1222.10
2022-10-26T03:17:45.034Z,1229.90
2022-10-26T03:20:14.094Z,1207.15
2022-10-26T03:22:42.289Z,1231.18
2022-10-26T03:25:10.585Z,1223.50
2022-10-26T03:27:39.007Z,1215.65
2022-10-26T03:30:08.298Z,1212.80
2022-10-26T03:32:36.532Z,1210.72
2022-10-26T03:35:06.472Z,1211.43
2022-10-26T03:37:35.088Z,1212.47
2022-10-26T03:40:03.052Z,1202.65
2022-10-26T03:42:35.264Z,1212.55
2022-10-26T03:45:03.381Z,1217.68
2022-10-26T03:47:32.588Z,1204.22
2022-10-26T03:50:00.771Z,1207.13
2022-10-26T03:52:30.307Z,1214.60
2022-10-26T03:54:58.394Z,1204.20
2022-10-26T03:57:27.454Z,1219.13
2022-10-26T03:59:55.489Z,1208.38
2022-10-26T04:02:23.551Z,1208.28
2022-10-26T04:04:51.687Z,1205.65
2022-10-26T04:07:19.699Z,1215.13
2022-10-26T04:09:49.054Z,1206.32
2022-10-26T04:12:17.098Z,1202.25
2022-10-26T04:14:45.115Z,1205.38
2022-10-26T04:17:13.166Z,1208.97
2022-10-26T04:19:41.196Z,1202.97
2022-10-26T04:22:09.351Z,1207.33
2022-10-26T04:24:37.508Z,1199.38
2022-10-26T04:27:06.999Z,1207.50
2022-10-26T04:29:35.021Z,1206.72
2022-10-26T04:32:04.893Z,1202.30
2022-10-26T04:34:32.926Z,1205.15
2022-10-26T04:37:01.022Z,1203.90
2022-10-26T04:39:29.214Z,1207.90
2022-10-26T04:41:57.258Z,1203.70
2022-10-26T04:44:26.649Z,1204.57
2022-10-26T04:46:54.871Z,1208.55
2022-10-26T04:49:22.864Z,1205.93
2022-10-26T04:51:51.009Z,1199.18
2022-10-26T04:54:19.049Z,1196.90
2022-10-26T04:59:20.442Z,1198.10
2022-10-26T05:01:49.904Z,1200.90
2022-10-26T05:04:18.104Z,1200.88
2022-10-26T05:06:46.105Z,1192.70
2022-10-26T05:09:14.148Z,1196.68
2022-10-26T05:11:42.165Z,1204.68
2022-10-26T05:14:10.708Z,1207.15
2022-10-26T05:16:38.810Z,1202.88
2022-10-26T05:19:08.282Z,1221.95
2022-10-26T05:21:36.444Z,1205.18
2022-10-26T05:24:07.615Z,1199.40
2022-10-26T05:26:38.247Z,1201.82
2022-10-26T05:29:06.423Z,1197.60
2022-10-26T05:32:06.865Z,1200.90
2022-10-26T05:34:38.293Z,1204.50
2022-10-26T05:37:08.976Z,1202.63
2022-10-26T05:39:37.014Z,1205.70
2022-10-26T05:42:05.060Z,1201.32
2022-10-26T05:44:33.113Z,1203.65
2022-10-26T05:47:01.131Z,1204.88
2022-10-26T05:49:29.135Z,1190.80
2022-10-26T05:51:59.777Z,1194.47
2022-10-26T05:54:27.833Z,1192.18
2022-10-26T05:56:56.444Z,1204.50
2022-10-26T05:59:25.073Z,1196.80
2022-10-26T06:02:02.809Z,1205.10
2022-10-26T06:04:37.915Z,1194.32
2022-10-26T06:07:12.742Z,1203.38
2022-10-26T06:09:42.051Z,1202.10
2022-10-26T06:12:13.473Z,1209.47
2022-10-26T06:14:44.828Z,1196.78
2022-10-26T06:17:42.835Z,1205.60
2022-10-26T06:20:22.323Z,1194.55
2022-10-26T06:23:01.904Z,1201.07
2022-10-26T06:25:39.345Z,1196.00
2022-10-26T06:28:22.645Z,1200.97
2022-10-26T06:30:50.974Z,1204.22
2022-10-26T06:33:29.030Z,1216.88
2022-10-26T06:36:09.530Z,1216.78
2022-10-26T06:38:41.370Z,1209.47
2022-10-26T06:41:10.466Z,1215.05
2022-10-26T06:43:39.060Z,1210.65
2022-10-26T06:46:15.914Z,1218.03
2022-10-26T06:48:52.945Z,1215.78
2022-10-26T06:51:21.527Z,1238.63
2022-10-26T06:53:58.246Z,1225.93
2022-10-26T06:56:27.234Z,1226.75
2022-10-26T06:58:58.336Z,1228.15
2022-10-26T07:01:26.468Z,1231.07
2022-10-26T07:03:54.488Z,1244.40
2022-10-26T07:06:22.514Z,1257.30
2022-10-26T07:08:52.032Z,1260.07
2022-10-26T07:11:20.095Z,1254.88
2022-10-26T07:13:51.873Z,1258.93
2022-10-26T07:16:21.118Z,1264.55
2022-10-26T07:18:49.132Z,1259.68
2022-10-26T07:21:17.231Z,1256.72
2022-10-26T07:23:45.269Z,1254.03
2022-10-26T07:26:14.635Z,1260.63
2022-10-26T07:28:42.632Z,1254.43
2022-10-26T07:31:10.767Z,1265.22
2022-10-26T07:33:41.486Z,1253.67
2022-10-26T07:36:10.909Z,1275.90
2022-10-26T07:38:39.061Z,1274.38
2022-10-26T07:41:07.541Z,1272.25
2022-10-26T07:43:37.030Z,1276.40
2022-10-26T07:46:05.434Z,1276.07
2022-10-26T07:48:33.582Z,1277.93
2022-10-26T07:51:03.366Z,1289.78
2022-10-26T07:53:31.760Z,1292.75
2022-10-26T07:55:59.926Z,1321.45
2022-10-26T07:58:28.299Z,1338.70
2022-10-26T08:00:58.067Z,1391.82
2022-10-26T08:03:26.175Z,1357.13
2022-10-26T08:05:56.009Z,1360.38
2022-10-26T08:08:24.479Z,1294.80
2022-10-26T08:10:52.743Z,1143.38
2022-10-26T08:13:20.776Z,1207.18
2022-10-26T08:15:48.912Z,1417.13
2022-10-26T08:18:18.277Z,1374.97
2022-10-26T08:20:46.257Z,1335.78
2022-10-26T08:23:14.347Z,1340.50
2022-10-26T08:25:42.316Z,1331.45
2022-10-26T08:28:10.387Z,1327.28
2022-10-26T08:30:38.466Z,1269.65
2022-10-26T08:33:08.506Z,1392.97
2022-10-26T08:35:37.886Z,1359.57
2022-10-26T08:38:05.893Z,1363.10
2022-10-26T08:40:35.945Z,1362.55
2022-10-26T08:43:11.150Z,1265.70
2022-10-26T08:45:45.095Z,1437.27
2022-10-26T08:48:17.329Z,1362.82
2022-10-26T08:50:52.007Z,1355.50
2022-10-26T08:53:24.216Z,1265.63
2022-10-26T08:55:59.473Z,1384.17
2022-10-26T08:58:31.201Z,1367.95
2022-10-26T09:01:00.235Z,1222.32
2022-10-26T09:03:28.347Z,1317.82
2022-10-26T09:06:14.237Z,1318.78
2022-10-26T09:08:54.668Z,1307.15
2022-10-26T09:11:38.756Z,1303.05
2022-10-26T09:14:16.725Z,1309.13
2022-10-26T09:16:56.424Z,1205.45
2022-10-26T09:19:44.211Z,1345.35
2022-10-26T09:22:22.504Z,1346.03
2022-10-26T09:24:55.221Z,1322.45
2022-10-26T09:27:28.900Z,1329.20
2022-10-26T09:29:58.935Z,1329.00
2022-10-26T09:32:32.046Z,1348.85
2022-10-26T09:35:04.597Z,1333.95
2022-10-26T09:37:38.282Z,1332.85
2022-10-26T09:40:12.908Z,1341.57
2022-10-26T09:42:44.567Z,1330.95
2022-10-26T09:45:19.090Z,1352.10
2022-10-26T09:47:52.872Z,1364.53
2022-10-26T09:50:26.425Z,1353.75
2022-10-26T09:52:55.937Z,1352.97
2022-10-26T09:55:23.960Z,1351.60
2022-10-26T09:57:54.854Z,1358.25
2022-10-26T10:00:25.631Z,1346.85
2022-10-26T10:02:55.173Z,1332.40
2022-10-26T10:08:23.527Z,1185.72
2022-10-26T10:10:57.035Z,1267.35
2022-10-26T10:13:27.752Z,1253.75
2022-10-26T10:16:03.179Z,1319.35
2022-10-26T10:18:33.549Z,1213.05
2022-10-26T10:21:01.921Z,1181.70
2022-10-26T10:23:36.105Z,1344.18
2022-10-26T10:26:10.963Z,1351.13
2022-10-26T10:28:40.894Z,1350.90
2022-10-26T10:31:22.638Z,1324.82
2022-10-26T10:33:50.689Z,1331.68
2022-10-26T10:36:21.640Z,1324.15
2022-10-26T10:38:52.719Z,1210.60
2022-10-26T10:41:26.030Z,1331.20
2022-10-26T10:43:57.042Z,1311.60
2022-10-26T10:46:27.831Z,1262.22
2022-10-26T10:49:04.441Z,1371.90
2022-10-26T10:51:40.171Z,1358.47
2022-10-26T10:54:23.951Z,1346.35
2022-10-26T10:56:54.297Z,1204.72
2022-10-26T10:59:48.901Z,1298.80
2022-10-26T11:02:54.896Z,1258.30
2022-10-26T11:05:48.071Z,1358.90
2022-10-26T11:08:22.423Z,1352.72
2022-10-26T11:13:56.373Z,1330.03
2022-10-26T11:16:32.105Z,1327.43
2022-10-26T11:19:04.019Z,1223.25
2022-10-26T11:21:36.891Z,1363.15
2022-10-26T11:24:17.994Z,1331.65
2022-10-26T11:26:55.540Z,1328.30
2022-10-26T11:29:32.737Z,1327.70
2022-10-26T11:32:09.681Z,1240.10
2022-10-26T11:34:45.027Z,1361.37
2022-10-26T11:37:18.273Z,1356.83
2022-10-26T11:39:47.468Z,1370.83
2022-10-26T11:42:26.968Z,1360.00
2022-10-26T11:45:00.557Z,1365.47
2022-10-26T11:47:36.717Z,1371.35
2022-10-26T11:50:14.678Z,1372.88
2022-10-26T11:52:50.870Z,1369.90
2022-10-26T11:55:20.826Z,1368.30
2022-10-26T11:57:51.616Z,1368.38
2022-10-26T12:00:21.580Z,1354.60
2022-10-26T12:02:53.649Z,1369.97
2022-10-26T12:05:24.519Z,1380.80
2022-10-26T12:07:56.000Z,1369.57
2022-10-26T12:10:28.162Z,1369.60
2022-10-26T12:13:04.785Z,1364.47
2022-10-26T12:16:01.612Z,1348.63
2022-10-26T12:18:54.435Z,1373.90
2022-10-26T12:21:25.861Z,1371.85
2022-10-26T12:23:59.254Z,1373.50
2022-10-26T12:26:41.708Z,1300.53
2022-10-26T12:29:36.657Z,1307.45
2022-10-26T12:32:06.738Z,1286.65
2022-10-26T12:35:03.034Z,1295.00
2022-10-26T12:37:36.914Z,1294.07
2022-10-26T12:40:43.792Z,1413.82
2022-10-26T12:43:40.977Z,1422.68
2022-10-26T12:46:45.464Z,1419.53
2022-10-26T12:49:58.518Z,1425.03
2022-10-26T12:52:53.047Z,1426.55
2022-10-26T12:55:48.849Z,1425.47
2022-10-26T12:58:39.824Z,1435.50
2022-10-26T13:01:43.674Z,1435.10
2022-10-26T13:04:48.001Z,1432.75
2022-10-26T13:07:24.501Z,1434.15
2022-10-26T13:10:02.105Z,1439.32
2022-10-26T13:12:39.886Z,1440.15
2022-10-26T13:15:21.493Z,1448.28
2022-10-26T13:18:11.705Z,1441.30
2022-10-26T13:20:55.128Z,1443.68
2022-10-26T13:23:28.860Z,1444.40
2022-10-26T13:26:08.296Z,1459.23
2022-10-26T13:28:55.573Z,1358.23
2022-10-26T13:31:55.675Z,1345.50
2022-10-26T13:34:26.049Z,1369.65
2022-10-26T13:37:05.497Z,1360.10
2022-10-26T13:39:38.560Z,1283.40
2022-10-26T13:42:08.659Z,1388.03
2022-10-26T13:44:43.014Z,1378.95
2022-10-26T13:47:13.423Z,1401.07
2022-10-26T13:49:44.142Z,1407.25
2022-10-26T13:52:18.668Z,1400.05
2022-10-26T13:54:49.944Z,1403.25
2022-10-26T13:57:22.198Z,1406.80
2022-10-26T13:59:51.505Z,1409.53
2022-10-26T14:02:23.814Z,1403.72
2022-10-26T14:04:54.901Z,1405.72
2022-10-26T14:07:29.957Z,1408.13
2022-10-26T14:09:59.635Z,1407.72
2022-10-26T14:12:29.162Z,1402.20
2022-10-26T14:15:03.953Z,1416.78
2022-10-26T14:17:32.031Z,1416.25
2022-10-26T14:20:00.527Z,1416.03
2022-10-26T14:22:31.227Z,1397.80
2022-10-26T14:25:00.971Z,1404.60
2022-10-26T14:27:33.799Z,1409.00
2022-10-26T14:30:21.724Z,1411.18
2022-10-26T14:32:51.063Z,1406.05
2022-10-26T14:35:21.709Z,1401.28
2022-10-26T14:37:55.437Z,1419.15
2022-10-26T14:40:26.073Z,1412.70
2022-10-26T14:42:56.591Z,1415.35
2022-10-26T14:45:47.718Z,1398.75
2022-10-26T14:48:24.010Z,1403.20
2022-10-26T14:51:09.412Z,1403.13
2022-10-26T14:53:41.368Z,1396.43
2022-10-26T14:56:22.927Z,1405.03
2022-10-26T14:58:51.555Z,1398.47
2022-10-26T15:01:32.055Z,1399.10
2022-10-26T15:04:06.089Z,1400.45
2022-10-26T15:06:41.867Z,1402.13
2022-10-26T15:09:44.328Z,1408.25
2022-10-26T15:12:32.710Z,1404.63
2022-10-26T15:15:11.963Z,1402.30
2022-10-26T15:17:42.680Z,1408.65
2022-10-26T15:20:18.714Z,1415.47
2022-10-26T15:22:52.048Z,1411.07
2022-10-26T15:25:23.600Z,1406.47
2022-10-26T15:27:52.733Z,1410.43
2022-10-26T15:30:25.189Z,1406.65
2022-10-26T15:32:53.883Z,1408.07
2022-10-26T15:35:31.718Z,1408.30
2022-10-26T15:38:01.038Z,1409.72
2022-10-26T15:40:32.817Z,1406.37
2022-10-26T15:43:02.347Z,1408.28
2022-10-26T15:45:34.916Z,1405.47
2022-10-26T15:48:19.365Z,1402.93
2022-10-26T15:50:47.375Z,1412.35
2022-10-26T15:53:19.689Z,1403.18
2022-10-26T15:55:50.737Z,1405.72
2022-10-26T15:58:18.797Z,1403.63
2022-10-26T16:00:47.168Z,1405.60
2022-10-26T16:03:18.800Z,1407.72
2022-10-26T16:05:47.049Z,1409.57
2022-10-26T16:08:18.399Z,1406.32
2022-10-26T16:10:48.691Z,1409.25
2022-10-26T16:13:16.805Z,1408.47
2022-10-26T16:15:45.364Z,1412.60
2022-10-26T16:18:13.868Z,1402.72
2022-10-26T16:20:42.739Z,1410.97
2022-10-26T16:23:10.891Z,1409.87
2022-10-26T16:25:43.456Z,1413.53
2022-10-26T16:28:15.494Z,1411.20
2022-10-26T16:30:43.944Z,1419.28
2022-10-26T16:33:12.015Z,1412.53
2022-10-26T16:35:40.121Z,1418.03
2022-10-26T16:38:08.205Z,1411.90
2022-10-26T16:40:36.263Z,1408.75
2022-10-26T16:43:04.286Z,1411.28
2022-10-26T16:45:33.653Z,1413.07
2022-10-26T16:48:05.735Z,1411.73
2022-10-26T16:50:36.307Z,1412.72
2022-10-26T16:53:05.052Z,1412.85
2022-10-26T16:55:33.766Z,1413.57
2022-10-26T16:58:01.914Z,1415.03
2022-10-26T17:00:30.661Z,1418.00
2022-10-26T17:03:02.173Z,1402.07
2022-10-26T17:05:30.530Z,1413.30
2022-10-26T17:07:58.615Z,1428.35
2022-10-26T17:10:28.228Z,1425.75
2022-10-26T17:12:57.306Z,1417.38
2022-10-26T17:15:28.961Z,1411.72
2022-10-26T17:17:57.362Z,1416.93
2022-10-26T17:20:26.754Z,1418.13
2022-10-26T17:22:57.454Z,1412.30
2022-10-26T17:25:25.561Z,1423.03
2022-10-26T17:27:53.600Z,1416.18
2022-10-26T17:30:21.711Z,1420.95
2022-10-26T17:32:50.003Z,1419.85
2022-10-26T17:35:19.047Z,1418.35
2022-10-26T17:37:48.716Z,1419.37
2022-10-26T17:40:17.134Z,1426.78
2022-10-26T17:42:45.400Z,1425.03
2022-10-26T17:45:13.384Z,1424.80
2022-10-26T17:47:41.535Z,1421.40
2022-10-26T17:50:10.613Z,1421.65
2022-10-26T17:52:38.761Z,1425.63
2022-10-26T17:55:08.742Z,1412.55
2022-10-26T17:57:36.866Z,1414.47
2022-10-26T18:00:06.311Z,1409.18
2022-10-26T18:02:40.938Z,1409.73
2022-10-26T18:05:09.974Z,1402.22
2022-10-26T18:07:37.969Z,1397.53
2022-10-26T18:10:26.158Z,1400.82
2022-10-26T18:12:56.144Z,1422.55
2022-10-26T18:15:24.948Z,1412.80
2022-10-26T18:17:56.874Z,1227.93
2022-10-26T18:20:26.664Z,1433.65
2022-10-26T18:22:54.688Z,1411.70
2022-10-26T18:25:24.968Z,1403.60
2022-10-26T18:27:53.082Z,1389.70
2022-10-26T18:30:21.155Z,1393.00
2022-10-26T18:32:50.242Z,1257.38
2022-10-26T18:35:18.707Z,1461.68
2022-10-26T18:37:46.917Z,1442.87
2022-10-26T18:40:15.448Z,1454.78
2022-10-26T18:42:45.215Z,1449.75
2022-10-26T18:45:13.253Z,1256.20
2022-10-26T18:47:41.337Z,1475.68
2022-10-26T18:50:10.060Z,1464.78
2022-10-26T18:52:38.295Z,1467.50
2022-10-26T18:55:07.276Z,1461.20
2022-10-26T18:57:35.466Z,1478.53
2022-10-26T19:00:05.443Z,1463.63
2022-10-26T19:02:33.481Z,1481.35
2022-10-26T19:05:01.566Z,1474.93
2022-10-26T19:07:29.531Z,1472.83
2022-10-26T19:09:57.626Z,1476.10
2022-10-26T19:12:25.680Z,1464.10
2022-10-26T19:14:53.855Z,1475.55
2022-10-26T19:17:23.218Z,1471.70
2022-10-26T19:19:51.212Z,1471.97
2022-10-26T19:22:19.272Z,1471.35
2022-10-26T19:24:48.247Z,1477.50
2022-10-26T19:29:49.301Z,1476.00
2022-10-26T19:32:17.317Z,1481.22
2022-10-26T19:34:46.741Z,1476.28
2022-10-26T19:37:14.778Z,1479.35
2022-10-26T19:39:43.380Z,1482.07
2022-10-26T19:42:11.443Z,1476.68
2022-10-26T19:44:39.560Z,1471.75
2022-10-26T19:47:07.873Z,1477.63
2022-10-26T19:49:36.027Z,1472.60
2022-10-26T19:52:05.891Z,1481.47
2022-10-26T19:54:34.133Z,1480.47
2022-10-26T19:57:05.310Z,1485.50
2022-10-26T19:59:33.372Z,1486.20
2022-10-26T20:02:01.394Z,1470.07
2022-10-26T20:04:29.477Z,1480.68
2022-10-26T20:06:57.719Z,1471.82
2022-10-26T20:09:27.590Z,1471.43
2022-10-26T20:11:55.649Z,1467.15
2022-10-26T20:14:23.695Z,1465.25
2022-10-26T20:16:51.738Z,1420.45
2022-10-26T20:19:19.773Z,1438.45
2022-10-26T20:21:47.967Z,1459.72
2022-10-26T20:24:15.988Z,1448.60
2022-10-26T20:26:45.453Z,1443.25
2022-10-26T20:29:13.468Z,1218.97
2022-10-26T20:31:41.507Z,1397.13
2022-10-26T20:34:09.583Z,1404.05
2022-10-26T20:36:37.646Z,1410.70
2022-10-26T20:39:06.565Z,1405.00
2022-10-26T20:41:35.192Z,1401.05
2022-10-26T20:44:05.441Z,1413.53
2022-10-26T20:46:34.038Z,1410.85
2022-10-26T20:49:02.856Z,1406.50
2022-10-26T20:51:47.587Z,1421.67
2022-10-26T20:54:30.268Z,1416.53
2022-10-26T20:57:02.007Z,1432.13
2022-10-26T20:59:37.080Z,1429.68
2022-10-26T21:02:05.349Z,1432.38
2022-10-26T21:04:33.471Z,1432.63
2022-10-26T21:07:01.515Z,1429.32
2022-10-26T21:09:31.688Z,1423.72
2022-10-26T21:12:05.196Z,1442.90
2022-10-26T21:14:40.603Z,1442.47
2022-10-26T21:17:09.222Z,1441.65
2022-10-26T21:19:37.420Z,1440.05
2022-10-26T21:22:05.466Z,1424.40
2022-10-26T21:24:33.694Z,1429.07
2022-10-26T21:27:02.199Z,1429.28
2022-10-26T21:29:30.185Z,1428.60
2022-10-26T21:31:59.869Z,1435.15
2022-10-26T21:34:28.103Z,1432.68
2022-10-26T21:36:56.160Z,1420.97
2022-10-26T21:39:24.550Z,1421.50
2022-10-26T21:41:52.534Z,1414.90
2022-10-26T21:44:39.976Z,1427.53
2022-10-26T21:47:10.709Z,1418.25
2022-10-26T21:49:39.228Z,1431.00
2022-10-26T21:52:08.380Z,1441.97
2022-10-26T21:54:36.564Z,1437.97
2022-10-26T21:57:04.619Z,1443.32
2022-10-26T21:59:32.686Z,1435.82
2022-10-26T22:02:00.894Z,1433.88
2022-10-26T22:04:33.405Z,1440.70
2022-10-26T22:07:02.191Z,1431.13
2022-10-26T22:09:30.214Z,1439.07
2022-10-26T22:11:58.367Z,1447.93
2022-10-26T22:14:26.539Z,1429.13
2022-10-26T22:16:54.614Z,1442.28
2022-10-26T22:19:22.622Z,1444.75
2022-10-26T22:21:52.162Z,1430.00
2022-10-26T22:24:20.244Z,1433.25
2022-10-26T22:26:48.477Z,1432.00
2022-10-26T22:29:16.714Z,1426.43
2022-10-26T22:31:44.953Z,1428.70
2022-10-26T22:34:16.751Z,1436.95
2022-10-26T22:36:45.415Z,1457.22
2022-10-26T22:39:14.822Z,1439.70
2022-10-26T22:41:42.836Z,1442.80
2022-10-26T22:44:10.973Z,1451.50
2022-10-26T22:46:39.274Z,1427.03
2022-10-26T22:49:07.294Z,1441.60
2022-10-26T22:51:35.852Z,1419.32
2022-10-26T22:54:05.714Z,1450.53
2022-10-26T22:56:37.132Z,1431.60
2022-10-26T22:59:05.501Z,1430.70
2022-10-26T23:01:37.670Z,1450.43
2022-10-26T23:04:06.214Z,1441.97
2022-10-26T23:06:34.790Z,1431.80
2022-10-26T23:09:03.196Z,1447.97
2022-10-26T23:11:31.454Z,1423.50
2022-10-26T23:14:02.637Z,1426.50
2022-10-26T23:16:31.534Z,1417.75
2022-10-26T23:19:00.225Z,1449.28
2022-10-26T23:21:29.102Z,1450.73
2022-10-26T23:23:57.488Z,1446.87
2022-10-26T23:26:25.601Z,1441.78
2022-10-26T23:28:53.594Z,1443.47
2022-10-26T23:31:25.714Z,1438.70
2022-10-26T23:33:55.099Z,1446.97
2022-10-26T23:36:23.409Z,1447.65
2022-10-26T23:38:51.780Z,1453.65
2022-10-26T23:41:19.868Z,1451.80
2022-10-26T23:43:47.853Z,1451.40
2022-10-26T23:46:16.099Z,1449.93
2022-10-26T23:48:45.531Z,1452.82
2022-10-26T23:51:13.571Z,1443.23
2022-10-26T23:53:41.666Z,1454.93
2022-10-26T23:56:09.737Z,1453.30
2022-10-26T23:58:37.790Z,1457.78
